Time;durP1;ratioP1;P1;durP2;ratioP2;P2;SDS_P1;SDS_P2;PMS_P1;PMS_P2;Temp;Humidity;BMP_temperature;BMP_pressure;BME280_temperature;BME280_humidity;BME280_pressure;Samples;Min_cycle;Max_cycle;Signal;HPM_P1;HPM_P2
2021/08/22 00:02:01;;;;;;;24.23;19.90;;;19.10;99.90;;;;;;5057424;28;20169;-78
2021/08/22 00:04:26;;;;;;;26.03;20.77;;;19.00;99.90;;;;;;5038293;28;20180;-77
2021/08/22 00:06:52;;;;;;;23.60;21.10;;;19.10;99.90;;;;;;5056558;28;20177;-79
2021/08/22 00:09:18;;;;;;;28.83;21.60;;;19.00;99.90;;;;;;5056486;28;20202;-76
2021/08/22 00:11:43;;;;;;;27.30;21.23;;;19.00;99.90;;;;;;5057430;28;20170;-76
2021/08/22 00:14:09;;;;;;;26.20;22.40;;;19.10;99.90;;;;;;5057041;28;20484;-78
2021/08/22 00:16:34;;;;;;;29.30;23.70;;;19.10;99.90;;;;;;5042149;28;20300;-78
2021/08/22 00:19:00;;;;;;;28.53;24.13;;;19.10;99.90;;;;;;5058124;28;20531;-76
2021/08/22 00:21:26;;;;;;;30.57;23.73;;;19.00;99.90;;;;;;5057007;28;20275;-76
2021/08/22 00:23:51;;;;;;;28.23;25.03;;;19.00;99.90;;;;;;5039205;28;20181;-76
2021/08/22 00:26:17;;;;;;;30.90;24.33;;;19.00;99.90;;;;;;5059399;28;20177;-79
2021/08/22 00:28:43;;;;;;;29.30;24.23;;;18.90;99.90;;;;;;5057646;28;20201;-77
2021/08/22 00:31:09;;;;;;;28.13;24.93;;;18.90;99.90;;;;;;5040500;28;20180;-76
2021/08/22 00:33:34;;;;;;;34.90;24.17;;;18.70;99.90;;;;;;5057426;28;20180;-76
2021/08/22 00:36:03;;;;;;;28.37;24.30;;;18.80;99.90;;;;;;5056232;28;20184;-77
2021/08/22 00:38:31;;;;;;;29.10;24.33;;;18.80;99.90;;;;;;5074934;28;20239;-81
2021/08/22 00:40:56;;;;;;;28.13;24.10;;;18.70;99.90;;;;;;5058981;28;20169;-79
2021/08/22 00:43:27;;;;;;;31.93;26.13;;;18.80;99.90;;;;;;5057031;28;20196;-77
2021/08/22 00:45:52;;;;;;;29.13;25.30;;;18.80;99.90;;;;;;5056840;28;20183;-77
2021/08/22 00:48:18;;;;;;;31.33;24.63;;;18.80;99.90;;;;;;5056790;28;20668;-76
2021/08/22 00:50:48;;;;;;;29.10;24.20;;;18.90;99.90;;;;;;5058284;28;20674;-76
2021/08/22 00:53:13;;;;;;;31.53;24.23;;;18.70;99.90;;;;;;5058189;28;20168;-76
2021/08/22 00:55:39;;;;;;;26.97;22.03;;;18.70;99.90;;;;;;5065275;28;20225;-75
2021/08/22 00:58:05;;;;;;;26.67;22.70;;;18.70;99.90;;;;;;5079154;28;20174;-76
2021/08/22 01:00:31;;;;;;;24.87;21.03;;;18.60;99.90;;;;;;5066769;28;20170;-77
2021/08/22 01:03:23;;;;;;;28.07;22.63;;;18.60;99.90;;;;;;5057943;28;20556;-77
2021/08/22 01:06:06;;;;;;;26.90;21.97;;;18.60;99.90;;;;;;5056684;28;20168;-76
2021/08/22 01:08:36;;;;;;;26.70;21.77;;;18.60;99.90;;;;;;5055288;28;20661;-79
2021/08/22 01:11:17;;;;;;;24.57;21.37;;;18.60;99.90;;;;;;5055282;28;20168;-79
2021/08/22 01:13:57;;;;;;;23.57;21.07;;;18.60;99.90;;;;;;5056286;28;20175;-76
2021/08/22 01:16:26;;;;;;;25.37;21.00;;;18.60;99.90;;;;;;5056621;28;20236;-78
2021/08/22 01:18:57;;;;;;;24.03;21.43;;;18.60;99.90;;;;;;5037170;28;20203;-79
2021/08/22 01:21:23;;;;;;;24.90;20.97;;;18.60;99.90;;;;;;5055088;28;20268;-80
2021/08/22 01:23:55;;;;;;;21.97;19.43;;;18.70;99.90;;;;;;5055493;28;20173;-77
2021/08/22 01:26:27;;;;;;;21.67;19.37;;;18.70;99.90;;;;;;5055225;28;20161;-77
2021/08/22 01:28:53;;;;;;;23.03;19.77;;;18.70;99.90;;;;;;5055074;28;20209;-77
2021/08/22 01:31:36;;;;;;;22.80;19.97;;;18.80;99.90;;;;;;5056270;28;20192;-78
2021/08/22 01:34:02;;;;;;;21.33;19.13;;;18.80;99.90;;;;;;5056257;28;20175;-77
2021/08/22 01:36:29;;;;;;;21.67;19.20;;;18.70;99.90;;;;;;5055912;28;20166;-79
2021/08/22 01:38:55;;;;;;;23.57;19.93;;;18.70;99.90;;;;;;5056765;28;20157;-77
2021/08/22 01:41:25;;;;;;;20.97;17.93;;;18.80;99.90;;;;;;5056141;28;20176;-79
2021/08/22 01:43:53;;;;;;;22.53;19.37;;;18.70;99.90;;;;;;5038451;28;20180;-76
2021/08/22 01:46:22;;;;;;;23.13;19.60;;;18.70;99.90;;;;;;5055305;28;20177;-77
2021/08/22 01:48:49;;;;;;;20.73;18.53;;;18.60;99.90;;;;;;5054635;28;20208;-79
2021/08/22 01:51:15;;;;;;;23.77;19.03;;;18.70;99.90;;;;;;5057336;28;20165;-76
2021/08/22 01:53:41;;;;;;;23.13;18.47;;;18.60;99.90;;;;;;5055421;28;20183;-78
2021/08/22 01:56:06;;;;;;;21.23;19.03;;;18.60;99.90;;;;;;5038552;28;20222;-76
2021/08/22 01:58:32;;;;;;;21.87;19.57;;;18.70;99.90;;;;;;5036231;28;20177;-76
2021/08/22 02:00:58;;;;;;;20.90;18.47;;;18.70;99.90;;;;;;5053442;28;20224;-75
2021/08/22 02:03:38;;;;;;;21.70;18.67;;;18.70;99.90;;;;;;5054357;28;20160;-75
2021/08/22 02:06:16;;;;;;;19.80;17.80;;;18.60;99.90;;;;;;5054484;28;20166;-76
2021/08/22 02:08:44;;;;;;;20.83;18.60;;;18.60;99.90;;;;;;5053449;28;20212;-76
2021/08/22 02:11:22;;;;;;;20.60;18.40;;;18.60;99.90;;;;;;5053976;28;20252;-76
2021/08/22 02:13:49;;;;;;;20.67;17.63;;;18.70;99.90;;;;;;5054255;28;20184;-76
2021/08/22 02:16:20;;;;;;;20.83;18.63;;;18.70;99.90;;;;;;5054257;28;20172;-75
2021/08/22 02:18:46;;;;;;;19.23;17.20;;;18.80;99.90;;;;;;5054240;28;20610;-76
2021/08/22 02:21:13;;;;;;;20.57;16.63;;;18.60;99.90;;;;;;5036405;28;20193;-79
2021/08/22 02:23:39;;;;;;;17.97;16.07;;;18.60;99.90;;;;;;5054336;28;20175;-77
2021/08/22 02:26:05;;;;;;;19.67;17.27;;;18.60;99.90;;;;;;5054554;28;20644;-75
2021/08/22 02:28:33;;;;;;;21.80;17.23;;;18.50;99.90;;;;;;5054335;28;20349;-77
2021/08/22 02:30:58;;;;;;;19.30;17.07;;;18.70;99.90;;;;;;5054756;28;20621;-77
2021/08/22 02:33:24;;;;;;;18.70;16.27;;;18.70;99.90;;;;;;5054610;28;20222;-78
2021/08/22 02:35:51;;;;;;;20.40;16.33;;;18.50;99.90;;;;;;5054468;28;20181;-76
2021/08/22 02:38:17;;;;;;;17.97;15.97;;;18.50;99.90;;;;;;5053589;28;20188;-77
2021/08/22 02:40:42;;;;;;;17.37;15.57;;;18.60;99.90;;;;;;5054389;28;20169;-77
2021/08/22 02:43:08;;;;;;;16.47;14.57;;;18.60;99.90;;;;;;5054241;28;20255;-80
2021/08/22 02:45:34;;;;;;;16.70;14.60;;;18.70;99.90;;;;;;5053965;28;20676;-77
2021/08/22 02:48:01;;;;;;;16.37;14.47;;;18.60;99.90;;;;;;5035996;28;20299;-77
2021/08/22 02:50:28;;;;;;;18.20;14.60;;;18.60;99.90;;;;;;5054389;28;20210;-78
2021/08/22 02:52:55;;;;;;;18.70;14.37;;;18.50;99.90;;;;;;5036692;28;20181;-79
2021/08/22 02:55:20;;;;;;;15.37;13.77;;;18.50;99.90;;;;;;5054575;28;20168;-74
2021/08/22 02:57:46;;;;;;;16.93;14.87;;;18.60;99.90;;;;;;5054393;28;20477;-78
2021/08/22 03:00:12;;;;;;;16.00;13.90;;;18.40;99.90;;;;;;5057982;28;20255;-80
2021/08/22 03:02:38;;;;;;;17.10;13.40;;;18.50;99.90;;;;;;5058803;28;20712;-80
2021/08/22 03:05:04;;;;;;;17.47;13.60;;;18.40;99.90;;;;;;5058455;28;20205;-79
2021/08/22 03:07:29;;;;;;;14.83;13.20;;;18.40;99.90;;;;;;5057976;28;20246;-76
2021/08/22 03:09:55;;;;;;;16.27;12.60;;;18.50;99.90;;;;;;5057751;28;20231;-76
2021/08/22 03:12:21;;;;;;;15.13;13.23;;;18.50;99.90;;;;;;5057192;28;20247;-76
2021/08/22 03:14:46;;;;;;;14.20;12.60;;;18.50;99.90;;;;;;5058165;28;20561;-77
2021/08/22 03:17:12;;;;;;;14.27;11.83;;;18.50;99.90;;;;;;5060027;28;20170;-75
2021/08/22 03:19:38;;;;;;;13.87;12.33;;;18.40;99.90;;;;;;5059098;28;20173;-76
2021/08/22 03:22:04;;;;;;;14.07;12.07;;;18.40;99.90;;;;;;5060481;28;20176;-76
2021/08/22 03:24:30;;;;;;;13.93;10.83;;;18.40;99.90;;;;;;5045241;28;20182;-76
2021/08/22 03:26:55;;;;;;;12.17;10.83;;;18.40;99.90;;;;;;5050828;28;20263;-74
2021/08/22 03:29:21;;;;;;;13.23;10.47;;;18.30;99.90;;;;;;5069897;28;20173;-76
2021/08/22 03:31:47;;;;;;;12.43;11.13;;;18.30;99.90;;;;;;5049842;28;20166;-76
2021/08/22 03:34:13;;;;;;;14.43;11.27;;;18.30;99.90;;;;;;5060738;28;20207;-75
2021/08/22 03:36:39;;;;;;;12.33;11.00;;;18.40;99.90;;;;;;5058263;28;20177;-74
2021/08/22 03:39:06;;;;;;;14.37;11.20;;;18.50;99.90;;;;;;5059390;28;20726;-75
2021/08/22 03:41:33;;;;;;;16.53;11.60;;;18.40;99.90;;;;;;5069580;28;20172;-75
2021/08/22 03:43:59;;;;;;;13.57;12.07;;;18.40;99.90;;;;;;5071581;28;20164;-76
2021/08/22 03:46:25;;;;;;;14.03;11.53;;;18.50;99.90;;;;;;5074260;28;20156;-74
2021/08/22 03:48:51;;;;;;;13.77;12.20;;;18.70;99.90;;;;;;5081037;28;20244;-74
2021/08/22 03:51:17;;;;;;;12.53;10.87;;;18.60;99.90;;;;;;5080932;28;20176;-76
2021/08/22 03:53:45;;;;;;;12.43;10.90;;;18.60;99.90;;;;;;5079232;28;20181;-75
2021/08/22 03:56:11;;;;;;;12.13;10.80;;;18.50;99.90;;;;;;5081495;28;20165;-76
2021/08/22 03:58:37;;;;;;;12.60;10.60;;;18.50;99.90;;;;;;5081541;28;20169;-74
2021/08/22 04:01:02;;;;;;;12.67;11.17;;;18.70;99.90;;;;;;5078341;28;20188;-75
2021/08/22 04:03:31;;;;;;;14.03;10.57;;;18.70;99.90;;;;;;5078579;28;20185;-75
2021/08/22 04:05:57;;;;;;;15.53;11.40;;;18.60;99.90;;;;;;5080093;28;20206;-76
2021/08/22 04:08:25;;;;;;;13.83;10.93;;;18.60;99.90;;;;;;5069479;28;20221;-77
2021/08/22 04:14:13;;;;;;;11.70;10.03;;;18.50;99.90;;;;;;5057641;28;20643;-75
2021/08/22 04:16:39;;;;;;;11.40;9.10;;;18.50;99.90;;;;;;5037977;28;20183;-78
2021/08/22 04:19:05;;;;;;;12.43;9.90;;;18.40;99.90;;;;;;5055525;28;20177;-79
2021/08/22 04:21:33;;;;;;;9.93;8.83;;;18.40;99.90;;;;;;5055777;28;20177;-79
2021/08/22 04:23:59;;;;;;;10.83;8.80;;;18.40;99.90;;;;;;5055541;28;20180;-76
2021/08/22 04:26:25;;;;;;;10.53;8.10;;;18.50;99.90;;;;;;5055356;28;20165;-77
2021/08/22 04:28:50;;;;;;;9.83;8.33;;;18.50;99.90;;;;;;5055178;28;20203;-76
2021/08/22 04:31:16;;;;;;;10.73;7.53;;;18.60;99.90;;;;;;5055460;28;20176;-79
2021/08/22 04:33:41;;;;;;;9.03;7.57;;;18.60;99.90;;;;;;5055389;28;20622;-76
2021/08/22 04:36:07;;;;;;;11.43;7.23;;;18.50;99.90;;;;;;5060784;28;20161;-77
2021/08/22 04:38:35;;;;;;;9.37;7.27;;;18.50;99.90;;;;;;5079924;28;20204;-77
2021/08/22 04:41:01;;;;;;;8.60;7.70;;;18.40;99.90;;;;;;5080397;28;20185;-75
2021/08/22 04:43:27;;;;;;;10.97;7.87;;;18.40;99.90;;;;;;5072160;28;20179;-76
2021/08/22 04:45:52;;;;;;;10.53;8.07;;;18.40;99.90;;;;;;5059716;28;20177;-76
2021/08/22 04:48:18;;;;;;;9.50;7.47;;;18.40;99.90;;;;;;5059110;28;20588;-79
2021/08/22 04:50:47;;;;;;;7.87;7.00;;;18.30;99.90;;;;;;5055919;28;20642;-76
2021/08/22 04:53:12;;;;;;;9.63;7.60;;;18.30;99.90;;;;;;5055071;28;20540;-79
2021/08/22 04:55:41;;;;;;;13.07;7.57;;;18.30;99.90;;;;;;5053788;28;20173;-77
2021/08/22 04:58:07;;;;;;;9.43;8.13;;;18.30;99.90;;;;;;5054880;28;20171;-76
2021/08/22 05:00:32;;;;;;;9.97;8.23;;;18.30;99.90;;;;;;5036860;28;20177;-78
2021/08/22 05:02:58;;;;;;;10.57;8.03;;;18.30;99.90;;;;;;5054668;28;20589;-79
2021/08/22 05:05:24;;;;;;;12.57;8.10;;;18.30;99.90;;;;;;5055517;28;20176;-75
2021/08/22 05:07:50;;;;;;;12.90;7.97;;;18.40;99.90;;;;;;5057188;28;20267;-75
2021/08/22 05:10:16;;;;;;;10.17;7.93;;;18.30;99.90;;;;;;5056771;28;20173;-77
2021/08/22 05:12:42;;;;;;;12.67;7.63;;;18.40;99.90;;;;;;5055948;28;20203;-78
2021/08/22 05:15:08;;;;;;;9.10;8.07;;;18.30;99.90;;;;;;5053845;28;20276;-79
2021/08/22 05:17:34;;;;;;;10.57;7.57;;;18.30;99.90;;;;;;5054841;28;20617;-76
2021/08/22 05:20:00;;;;;;;10.40;7.30;;;18.40;99.90;;;;;;5054912;28;20235;-79
2021/08/22 05:22:25;;;;;;;10.30;7.27;;;18.30;99.90;;;;;;5054274;28;20540;-76
2021/08/22 05:24:51;;;;;;;8.37;7.13;;;18.30;99.90;;;;;;5054271;28;20178;-77
2021/08/22 05:27:16;;;;;;;10.30;7.70;;;18.30;99.90;;;;;;5061679;28;20226;-75
2021/08/22 05:29:45;;;;;;;11.30;7.00;;;18.30;99.90;;;;;;5067250;28;20652;-75
2021/08/22 05:32:14;;;;;;;9.57;7.00;;;18.40;99.90;;;;;;5060847;28;20248;-76
2021/08/22 05:34:42;;;;;;;8.80;6.83;;;18.30;99.90;;;;;;5061090;28;20192;-75
2021/08/22 05:37:11;;;;;;;8.67;6.33;;;18.40;99.90;;;;;;5055227;28;20162;-75
2021/08/22 05:39:43;;;;;;;10.63;6.30;;;18.70;99.90;;;;;;5054778;28;20174;-75
2021/08/22 05:42:17;;;;;;;9.80;5.80;;;18.60;99.90;;;;;;5055377;28;20621;-75
2021/08/22 05:44:42;;;;;;;9.07;5.90;;;18.60;99.90;;;;;;5039141;28;20553;-78
2021/08/22 05:47:08;;;;;;;9.97;5.80;;;18.70;99.90;;;;;;5056616;28;20196;-76
2021/08/22 05:49:39;;;;;;;10.70;5.43;;;18.60;99.90;;;;;;5056224;28;20181;-75
2021/08/22 05:52:07;;;;;;;10.63;5.47;;;18.50;99.90;;;;;;5055904;28;20150;-76
2021/08/22 05:54:33;;;;;;;8.23;5.00;;;18.60;99.90;;;;;;5056312;28;20165;-76
2021/08/22 05:56:58;;;;;;;8.20;5.40;;;18.60;99.90;;;;;;5054642;28;20176;-77
2021/08/22 05:59:24;;;;;;;10.47;5.30;;;18.60;99.90;;;;;;5055168;28;20165;-80
2021/08/22 06:01:50;;;;;;;9.80;5.37;;;18.50;99.90;;;;;;5037264;28;20184;-77
2021/08/22 06:04:17;;;;;;;8.07;5.00;;;18.40;99.90;;;;;;5055557;28;20178;-75
2021/08/22 06:06:43;;;;;;;7.33;4.40;;;18.40;99.90;;;;;;5057152;28;20171;-76
2021/08/22 06:09:08;;;;;;;7.57;4.77;;;18.40;99.90;;;;;;5054567;28;20260;-75
2021/08/22 06:11:34;;;;;;;9.60;5.63;;;18.50;99.90;;;;;;5054499;28;20173;-79
2021/08/22 06:14:00;;;;;;;10.60;5.37;;;18.50;99.90;;;;;;5053732;28;20180;-76
2021/08/22 06:16:25;;;;;;;8.77;5.23;;;18.60;99.90;;;;;;5053716;28;20208;-79
2021/08/22 06:18:51;;;;;;;8.60;5.33;;;18.50;99.90;;;;;;5054619;28;20181;-79
2021/08/22 06:21:16;;;;;;;10.47;5.70;;;18.50;99.90;;;;;;5064823;28;20191;-77
2021/08/22 06:23:42;;;;;;;7.87;4.47;;;18.60;99.90;;;;;;5067371;28;20165;-76
2021/08/22 06:26:08;;;;;;;9.07;4.80;;;18.50;99.90;;;;;;5055061;28;20579;-77
2021/08/22 06:28:34;;;;;;;9.67;4.70;;;18.40;99.90;;;;;;5055047;28;20251;-75
2021/08/22 06:30:59;;;;;;;8.20;4.87;;;18.30;99.90;;;;;;5054326;28;20621;-75
2021/08/22 06:33:26;;;;;;;10.40;5.43;;;18.30;99.90;;;;;;5054319;28;20192;-76
2021/08/22 06:35:57;;;;;;;9.37;5.47;;;18.30;99.90;;;;;;5055069;28;20169;-76
2021/08/22 06:38:23;;;;;;;9.97;4.70;;;18.40;99.90;;;;;;5054714;28;20181;-76
2021/08/22 06:40:49;;;;;;;9.73;4.67;;;18.50;99.90;;;;;;5056087;28;20187;-76
2021/08/22 06:43:14;;;;;;;11.97;5.23;;;18.50;99.90;;;;;;5069680;28;20171;-76
2021/08/22 06:45:40;;;;;;;10.40;4.80;;;18.50;99.90;;;;;;5062347;28;20259;-78
2021/08/22 06:48:06;;;;;;;8.47;4.30;;;18.50;99.90;;;;;;5054808;28;20216;-77
2021/08/22 06:50:32;;;;;;;9.73;4.83;;;18.60;99.90;;;;;;5054894;28;20169;-76
2021/08/22 06:52:58;;;;;;;10.83;5.30;;;18.70;99.90;;;;;;5055036;28;20175;-80
2021/08/22 06:55:24;;;;;;;11.80;5.47;;;18.70;99.90;;;;;;5057189;28;20168;-79
2021/08/22 06:57:50;;;;;;;9.27;5.17;;;18.60;99.90;;;;;;5054521;28;20247;-76
2021/08/22 07:00:17;;;;;;;10.50;4.67;;;18.70;99.90;;;;;;5053300;28;20731;-78
2021/08/22 07:02:44;;;;;;;10.10;5.67;;;18.60;99.90;;;;;;5054494;28;20177;-82
2021/08/22 07:05:11;;;;;;;10.73;4.43;;;18.60;99.90;;;;;;5058418;28;20645;-76
2021/08/22 07:07:37;;;;;;;12.37;5.33;;;18.60;99.90;;;;;;5058492;28;20213;-80
2021/08/22 07:10:02;;;;;;;11.13;5.07;;;18.70;99.90;;;;;;5056280;28;20163;-76
2021/08/22 07:12:28;;;;;;;9.07;4.77;;;18.70;99.90;;;;;;5059360;28;20636;-73
2021/08/22 07:14:54;;;;;;;8.87;4.50;;;18.60;99.90;;;;;;5057492;28;20171;-78
2021/08/22 07:17:21;;;;;;;10.23;4.80;;;18.70;99.90;;;;;;5055031;28;20170;-75
2021/08/22 07:19:48;;;;;;;10.97;5.13;;;18.80;99.90;;;;;;5067348;28;20184;-76
2021/08/22 07:22:15;;;;;;;8.70;4.03;;;18.90;99.90;;;;;;5078693;28;20149;-74
2021/08/22 07:24:41;;;;;;;9.67;4.60;;;18.80;99.90;;;;;;5061299;28;20183;-78
2021/08/22 07:27:07;;;;;;;11.60;5.30;;;18.80;99.90;;;;;;5078507;28;20180;-79
2021/08/22 07:29:33;;;;;;;9.97;4.93;;;18.80;99.90;;;;;;5078256;28;20184;-75
2021/08/22 07:31:59;;;;;;;10.37;4.97;;;18.90;99.90;;;;;;5075885;28;20244;-79
2021/08/22 07:34:24;;;;;;;7.37;4.60;;;19.00;99.90;;;;;;5074357;28;20564;-76
2021/08/22 07:36:50;;;;;;;9.70;4.93;;;18.90;99.90;;;;;;5075463;28;20157;-76
2021/08/22 07:39:15;;;;;;;8.77;5.03;;;18.90;99.90;;;;;;5078091;28;20259;-76
2021/08/22 07:41:41;;;;;;;9.97;5.07;;;18.90;99.90;;;;;;5078883;28;20172;-78
2021/08/22 07:44:07;;;;;;;8.30;4.77;;;19.00;99.90;;;;;;5058504;28;20655;-79
2021/08/22 07:46:32;;;;;;;9.43;4.90;;;19.00;99.90;;;;;;5079528;28;20679;-81
2021/08/22 07:49:00;;;;;;;8.87;5.23;;;18.90;99.90;;;;;;5067836;28;20259;-80
2021/08/22 07:51:31;;;;;;;9.03;4.63;;;19.00;99.90;;;;;;5087042;28;20629;-81
2021/08/22 07:53:56;;;;;;;11.13;5.90;;;18.90;99.90;;;;;;5088373;28;20203;-80
2021/08/22 07:56:22;;;;;;;9.27;5.40;;;18.70;99.90;;;;;;5085858;28;20174;-80
2021/08/22 07:58:48;;;;;;;11.30;6.30;;;18.60;99.90;;;;;;5066657;28;20175;-77
2021/08/22 08:01:14;;;;;;;10.90;5.87;;;18.50;99.90;;;;;;5079039;28;20199;-80
2021/08/22 08:03:40;;;;;;;10.57;5.50;;;18.40;99.90;;;;;;5079059;28;20169;-79
2021/08/22 08:06:07;;;;;;;11.90;6.30;;;18.40;99.90;;;;;;5079613;28;20226;-81
2021/08/22 08:08:32;;;;;;;9.63;5.80;;;18.40;99.90;;;;;;5078675;28;20207;-80
2021/08/22 08:10:58;;;;;;;10.50;6.10;;;18.40;99.90;;;;;;5078969;28;20172;-78
2021/08/22 08:13:24;;;;;;;12.40;6.57;;;18.40;99.90;;;;;;5060593;28;20180;-79
2021/08/22 08:15:49;;;;;;;11.37;6.03;;;18.30;99.90;;;;;;5078088;28;20167;-78
2021/08/22 08:18:15;;;;;;;10.57;6.17;;;18.40;99.90;;;;;;5061819;28;20659;-78
2021/08/22 08:20:40;;;;;;;13.13;5.80;;;18.40;99.90;;;;;;5079931;28;20534;-81
2021/08/22 08:23:06;;;;;;;14.63;6.93;;;18.30;99.90;;;;;;5079645;28;20192;-77
2021/08/22 08:25:33;;;;;;;9.33;6.50;;;18.40;99.90;;;;;;5083721;28;20172;-81
2021/08/22 08:28:10;;;;;;;11.17;6.63;;;18.30;99.90;;;;;;5082946;28;20266;-78
2021/08/22 08:30:35;;;;;;;10.00;6.17;;;18.20;99.90;;;;;;5066110;28;20663;-77
2021/08/22 08:33:01;;;;;;;9.47;5.43;;;18.20;99.90;;;;;;5081376;28;20171;-79
2021/08/22 08:35:28;;;;;;;13.27;6.13;;;18.20;99.90;;;;;;5081535;28;20206;-78
2021/08/22 08:37:54;;;;;;;13.10;6.00;;;18.30;99.90;;;;;;5082468;28;20176;-78
2021/08/22 08:40:20;;;;;;;13.13;6.20;;;18.30;99.90;;;;;;5063878;28;20168;-77
2021/08/22 08:42:57;;;;;;;13.33;6.47;;;18.40;99.90;;;;;;5083710;28;20161;-76
2021/08/22 08:45:36;;;;;;;8.43;5.97;;;18.40;99.90;;;;;;5089338;28;20180;-77
2021/08/22 08:48:02;;;;;;;11.77;6.40;;;18.40;99.90;;;;;;5068537;28;20581;-77
2021/08/22 08:50:40;;;;;;;8.83;6.27;;;18.30;99.90;;;;;;5085021;28;20169;-77
2021/08/22 08:53:08;;;;;;;10.03;6.23;;;18.20;99.90;;;;;;5084263;28;20198;-80
2021/08/22 08:55:48;;;;;;;9.50;6.30;;;18.20;99.90;;;;;;5079480;28;20175;-78
2021/08/22 08:58:14;;;;;;;9.07;5.87;;;18.20;99.90;;;;;;5098549;28;20172;-77
2021/08/22 09:00:45;;;;;;;10.10;6.63;;;18.20;99.90;;;;;;5091638;28;20189;-78
2021/08/22 09:03:14;;;;;;;10.37;6.40;;;18.20;99.90;;;;;;5079684;28;20555;-78
2021/08/22 09:05:51;;;;;;;8.80;6.30;;;18.30;99.90;;;;;;5061355;28;20214;-81
2021/08/22 09:12:08;;;;;;;8.20;5.43;;;18.50;99.90;;;;;;5078511;28;20166;-77
2021/08/22 09:15:17;;;;;;;8.53;4.87;;;18.40;99.90;;;;;;5071881;28;20183;-77
2021/08/22 09:18:02;;;;;;;8.47;5.33;;;18.30;99.90;;;;;;5060926;28;20176;-79
2021/08/22 09:21:04;;;;;;;10.20;5.10;;;18.40;99.90;;;;;;5079375;28;20259;-78
2021/08/22 09:24:08;;;;;;;8.40;5.60;;;18.30;99.90;;;;;;5081241;28;20203;-82
2021/08/22 09:26:39;;;;;;;7.30;5.27;;;18.40;99.90;;;;;;5080114;28;20257;-82
2021/08/22 09:29:44;;;;;;;8.60;5.27;;;18.30;99.90;;;;;;5088351;28;20228;-77
2021/08/22 09:32:47;;;;;;;7.50;5.00;;;18.30;99.90;;;;;;5075398;28;20205;-76
2021/08/22 09:35:54;;;;;;;7.67;5.53;;;18.30;99.90;;;;;;5074878;28;20217;-80
2021/08/22 09:39:00;;;;;;;8.57;5.30;;;18.20;99.90;;;;;;5085052;28;20164;-77
2021/08/22 09:45:25;;;;;;;6.27;5.17;;;18.30;99.90;;;;;;5083202;28;20187;-84
2021/08/22 09:48:23;;;;;;;7.30;4.20;;;18.50;99.90;;;;;;5085433;28;20199;-81
2021/08/22 09:51:08;;;;;;;5.97;3.77;;;18.70;99.90;;;;;;5072549;28;20235;-80
2021/08/22 09:54:13;;;;;;;6.37;4.07;;;18.90;99.90;;;;;;5083657;28;20719;-79
2021/08/22 09:57:03;;;;;;;7.50;4.20;;;19.00;99.90;;;;;;5082761;28;20313;-79
2021/08/22 10:00:06;;;;;;;7.37;4.70;;;19.10;99.90;;;;;;5080249;28;20174;-79
2021/08/22 10:03:05;;;;;;;6.57;5.03;;;19.10;99.90;;;;;;5084258;28;20157;-84
2021/08/22 10:06:27;;;;;;;7.27;4.60;;;19.10;99.90;;;;;;5065301;28;20211;-81
2021/08/22 10:09:01;;;;;;;7.30;4.53;;;19.20;99.90;;;;;;5022444;28;20215;-80
2021/08/22 10:11:51;;;;;;;5.23;3.90;;;19.20;99.90;;;;;;5063477;28;20245;-80
2021/08/22 10:14:18;;;;;;;5.23;3.90;;;19.40;99.90;;;;;;5059575;28;20177;-78
2021/08/22 10:16:49;;;;;;;5.67;4.17;;;19.50;99.90;;;;;;5059740;28;20186;-77
2021/08/22 10:19:30;;;;;;;5.53;3.70;;;19.60;99.90;;;;;;5061790;28;20180;-79
2021/08/22 10:22:34;;;;;;;5.93;3.53;;;19.80;99.90;;;;;;5063326;28;20166;-81
2021/08/22 10:25:05;;;;;;;5.90;4.00;;;20.00;99.90;;;;;;4978901;28;20204;-79
2021/08/22 10:27:36;;;;;;;5.37;3.93;;;20.00;99.90;;;;;;4993298;28;20215;-81
2021/08/22 10:30:31;;;;;;;5.73;3.70;;;19.90;99.90;;;;;;5042505;28;20250;-81
2021/08/22 10:32:56;;;;;;;4.60;3.40;;;19.90;99.10;;;;;;5076598;28;20193;-79
2021/08/22 10:35:24;;;;;;;5.93;3.80;;;19.80;99.60;;;;;;5079825;28;20165;-79
2021/08/22 10:37:51;;;;;;;4.67;3.07;;;19.80;98.40;;;;;;5063327;28;20638;-79
2021/08/22 10:40:25;;;;;;;4.97;3.43;;;19.70;97.90;;;;;;5079280;28;20228;-78
2021/08/22 10:42:57;;;;;;;5.03;3.50;;;19.80;98.50;;;;;;5080119;28;20203;-79
2021/08/22 10:45:51;;;;;;;4.93;3.63;;;19.90;99.30;;;;;;5078429;28;20177;-81
2021/08/22 10:48:23;;;;;;;5.43;2.97;;;19.90;97.10;;;;;;5058878;28;20201;-81
2021/08/22 10:51:01;;;;;;;4.43;2.60;;;20.00;96.70;;;;;;5057891;28;20535;-81
2021/08/22 10:53:38;;;;;;;3.63;2.47;;;19.80;97.00;;;;;;5084118;28;20169;-80
2021/08/22 10:56:22;;;;;;;4.90;2.63;;;19.70;97.60;;;;;;5089541;28;20171;-80
2021/08/22 10:58:57;;;;;;;2.83;2.07;;;19.70;98.40;;;;;;5097690;28;20161;-80
2021/08/22 11:01:26;;;;;;;3.50;2.87;;;19.70;97.80;;;;;;5097637;28;20176;-77
2021/08/22 11:04:28;;;;;;;3.23;2.10;;;19.50;97.40;;;;;;5097400;28;20184;-80
2021/08/22 11:07:06;;;;;;;3.83;2.27;;;19.50;98.20;;;;;;5079311;28;20159;-80
2021/08/22 11:09:37;;;;;;;4.07;2.03;;;19.40;98.00;;;;;;5096418;28;20203;-82
2021/08/22 11:12:03;;;;;;;4.57;2.10;;;19.30;97.70;;;;;;5095154;28;20149;-78
2021/08/22 11:14:33;;;;;;;3.43;2.37;;;19.30;97.50;;;;;;5090849;28;20172;-78
2021/08/22 11:17:02;;;;;;;4.67;2.30;;;19.20;97.60;;;;;;5074837;28;20160;-77
2021/08/22 11:19:28;;;;;;;3.63;2.30;;;19.20;98.00;;;;;;5091351;28;20175;-77
2021/08/22 11:22:31;;;;;;;3.40;2.47;;;19.40;97.10;;;;;;5090234;28;20169;-81
2021/08/22 11:24:58;;;;;;;3.57;2.47;;;19.50;96.80;;;;;;5083655;28;20163;-79
2021/08/22 11:27:53;;;;;;;4.87;2.80;;;19.60;96.40;;;;;;5082296;28;20196;-84
2021/08/22 11:30:19;;;;;;;5.53;3.10;;;19.80;96.50;;;;;;5082197;28;20174;-82
2021/08/22 11:32:50;;;;;;;4.23;3.03;;;19.90;95.90;;;;;;5078142;28;20168;-81
2021/08/22 11:35:18;;;;;;;4.90;3.10;;;19.80;96.90;;;;;;5076427;28;20174;-83
2021/08/22 11:37:44;;;;;;;4.80;3.10;;;19.90;97.00;;;;;;5078633;28;20184;-81
2021/08/22 11:40:18;;;;;;;4.63;3.07;;;20.10;96.00;;;;;;5077351;28;20622;-78
2021/08/22 11:42:46;;;;;;;5.07;3.30;;;19.90;95.30;;;;;;5078627;28;20168;-83
2021/08/22 11:45:17;;;;;;;4.80;3.10;;;19.80;96.50;;;;;;5077378;28;20184;-82
2021/08/22 11:47:44;;;;;;;4.27;2.50;;;19.90;97.50;;;;;;5077880;28;20207;-82
2021/08/22 11:50:12;;;;;;;3.37;2.40;;;20.00;96.60;;;;;;5077493;28;20177;-80
2021/08/22 11:52:42;;;;;;;3.10;2.30;;;20.00;96.70;;;;;;5077759;28;20202;-81
2021/08/22 11:55:10;;;;;;;4.63;2.30;;;19.90;95.00;;;;;;5077641;28;20218;-83
2021/08/22 11:57:35;;;;;;;4.13;2.30;;;19.80;95.90;;;;;;5077214;28;20250;-80
2021/08/22 12:00:03;;;;;;;3.53;2.17;;;19.90;97.00;;;;;;5077186;28;20648;-77
2021/08/22 12:02:29;;;;;;;3.20;2.20;;;19.70;95.30;;;;;;5077037;28;20671;-78
2021/08/22 12:05:14;;;;;;;3.87;2.30;;;19.70;96.00;;;;;;5085506;28;20145;-76
2021/08/22 12:07:45;;;;;;;3.83;2.10;;;19.60;95.00;;;;;;5091404;28;20298;-80
2021/08/22 12:10:27;;;;;;;3.70;2.30;;;19.50;96.20;;;;;;5078826;28;20167;-77
2021/08/22 12:12:57;;;;;;;4.97;2.30;;;19.50;96.60;;;;;;5080457;28;20152;-83
2021/08/22 12:15:34;;;;;;;4.27;2.43;;;19.70;96.30;;;;;;5079657;28;20163;-82
2021/08/22 12:18:29;;;;;;;4.00;2.60;;;19.80;94.90;;;;;;5082587;28;20575;-78
2021/08/22 12:21:01;;;;;;;3.97;2.70;;;19.80;94.00;;;;;;5085500;28;20171;-81
2021/08/22 12:23:32;;;;;;;4.60;2.60;;;19.80;95.20;;;;;;5061884;28;20187;-77
2021/08/22 12:26:33;;;;;;;4.73;2.93;;;20.00;95.10;;;;;;5090190;28;20177;-79
2021/08/22 12:29:10;;;;;;;5.40;3.40;;;20.00;94.30;;;;;;5092644;28;20205;-78
2021/08/22 12:31:40;;;;;;;5.13;3.57;;;20.00;95.70;;;;;;5043709;28;20213;-80
2021/08/22 12:34:15;;;;;;;3.97;3.40;;;20.00;94.80;;;;;;5076626;28;20176;-81
2021/08/22 12:36:43;;;;;;;5.27;4.10;;;19.90;94.70;;;;;;5059216;28;20188;-81
2021/08/22 12:39:11;;;;;;;7.07;4.63;;;19.90;94.80;;;;;;5077770;28;20186;-82
2021/08/22 12:41:52;;;;;;;5.97;4.70;;;19.80;95.20;;;;;;5077820;28;20193;-83
2021/08/22 12:44:22;;;;;;;5.13;4.63;;;19.90;96.00;;;;;;5076806;28;20168;-82
2021/08/22 12:46:53;;;;;;;7.93;4.93;;;19.70;96.10;;;;;;5076027;28;20235;-78
2021/08/22 12:49:21;;;;;;;7.93;5.80;;;19.70;96.90;;;;;;5076470;28;20211;-82
2021/08/22 12:52:01;;;;;;;6.63;4.90;;;19.70;97.60;;;;;;5079400;28;20168;-82
2021/08/22 12:54:29;;;;;;;6.67;5.37;;;19.50;97.80;;;;;;5076135;28;20175;-77
2021/08/22 12:56:56;;;;;;;7.60;4.93;;;19.50;98.50;;;;;;5076444;28;20172;-77
2021/08/22 12:59:22;;;;;;;6.73;5.77;;;19.50;98.50;;;;;;5075894;28;20158;-82
2021/08/22 13:01:48;;;;;;;6.80;5.37;;;19.50;98.80;;;;;;5075424;28;20169;-79
2021/08/22 13:04:15;;;;;;;7.93;5.27;;;19.50;99.10;;;;;;5075097;28;20528;-79
2021/08/22 13:06:41;;;;;;;8.30;6.43;;;19.60;99.10;;;;;;5075540;28;20164;-78